Gold Country Challenge - Race 4 - 334 Mile Final

Station: Deeth Nevada - A Race

Distance: 334.008 Miles    

Release: 03-Nov-2018 07:50

Weather Release: Mostly Cloudy    Arrival: Sunny/Thin Clouds

Wind at Release: Light SE     Wind at Arrival: Light NW

Temp at Release: 35°    Temp at Arrival: 78°

Lofts: 75

Birds: 199

Clocked: 180

Mostly Cloudy Release a little sun. Prizes Listed This Race Only.
Drops Pos Breeder Pigeon Name Color Sex Ent Arrival Speed To Win Eligible PointsChamp
3885 1 H & H Flying Circus - CA 0801-AU18-ML BC H 1 14:25:02.10 1488.106 00:00:00 Yes 385
3885 2 Fleet Washington - DC 1869-AU18-FLET BC H 1 14:25:03.20 1488.037 00:00:01 Yes 384
3885 3 Dan And Greg Coury - AZ 0824-AU18-PEGA 24495x 1 BB H 1 14:25:08.50 1487.705 00:00:06 Yes 383
3885 4 Kay Eastwood - CA 0141-AU18-HANG BBSP H 1 14:25:12.00 1487.485 00:00:10 Yes 382
- 1-DROP 14:25:11.00 1486.485
1155 5 Fleet Washington - DC 1833-AU18-FLET BC H 2 14:26:12.10 1483.724 00:01:10 Yes 352
1155 6 House Of Paine - CA 1897-AU18-GSF BB H 1 14:26:18.10 1483.350 00:01:16 Yes 351
- 2-DROP 14:26:17.00 1482.350
402.63 7 M V - CA 8667-AU18-JEDD BC H 1 14:26:57.10 1480.921 00:01:55 Yes 331
402.63 8 Lopez/ Saenz - CA 2133-AU18-TCH BB H 1 14:26:58.20 1480.853 00:01:56 Yes 330
402.63 9 Al Shulman - CA 2706-AU18-WSJ BC H 1 14:26:59.70 1480.759 00:01:58 Yes 329
402.63 10 Bieche-Stevenson - CA 8258-AU18-BIE BB H 1 14:27:01.10 1480.672 00:01:59 Yes 328
402.63 11 Bieche-Stevenson - CA 8302-AU18-BIE BC H 2 14:27:03.70 1480.511 00:02:02 Yes 327
402.63 12 777-Loft - MN 0117-AU18-SPR The Gift of Love (ET) DC H 1 14:27:06.70 1480.324 00:02:05 Yes 326
402.63 13 Fleet Washington - DC 1825-AU18-FLET BC H 3 14:27:07.60 1480.268 00:02:06 Yes 325
402.63 14 Ken Chin - CA 0684-AU18-HAY BC H 1 14:27:07.70 1480.262 00:02:06 Yes 324
402.63 15 Perfection 2 - KS 1719-AU18-TCH PIED H 1 14:27:10.60 1480.082 00:02:08 Yes 323
402.63 16 Perfection 2 - KS 0171-AU18-SEBR BBSP H 2 14:27:13.50 1479.902 00:02:11 Yes 322
402.63 17 P N W Challenge - ID 0150-AU18-PNWC PAIR#5 BB H 1 14:27:15.00 1479.809 00:02:13 Yes 321
402.63 18 Silicon Valley Syndicates - CA 1810-AU18-WSJ BB H 1 14:27:15.80 1479.759 00:02:14 Yes 320
402.63 19 K C Loft - CA 0686-AU18-FMT BB H 1 14:27:16.20 1479.734 00:02:14 Yes 319
402.63 20 Triangle F Loft - UT 0256-AU18-UVI 594 X 700 BBWF H 1 14:27:16.50 1479.716 00:02:14 Yes 318
402.63 21 Irishsyndicatelofts - AZ 0145-IF18-IRIS BBWF H 1 14:27:17.00 1479.685 00:02:15 Yes 317
402.63 22 Sugaronni Loft - CA 9327-AU18-FOYS BB H 1 14:27:17.50 1479.654 00:02:15 Yes 316
402.63 23 Jactions Loft - CA 0801-AU18-AA BB H 1 14:27:24.70 1479.207 00:02:23 Yes 315
402.63 24 P N W Challenge - ID 0704-AU18-DA Pair#J BB H 2 14:27:25.20 1479.176 00:02:23 Yes 314
402.63 25 A P C Loft - TX 18231-AU18-APC BB H 1 14:27:25.30 1479.170 00:02:23 Yes 313
- 3-DROP 14:27:24.00 1478.170
26 Irishsyndicatelofts - AZ 0136-IF18-IRIS BB H 2 14:30:49.10 1466.635 00:05:47 Yes 298
- 4-DROP 14:30:48.00 1465.635
27 P N W Challenge - ID 0130-AU18-PNWC Pair#18 BBWF H 3 14:36:06.80 1447.512 00:11:05 Yes 288
28 Ken Chin - CA 0521-AU18-HAY SLT H 2 14:36:08.40 1447.417 00:11:06 Yes 287
29 Luisi/Tapia - NM 18003-AU18-TAP BBSP H 1 14:36:16.30 1446.948 00:11:14 Yes 286
30 H & H Flying Circus - CA 0807-AU18-ML BC H 2 14:36:18.10 1446.841 00:11:16 Yes 285
31 Loizzi - Sikora - CA 2517-AU18-FVC BB H 1 14:36:18.50 1446.818 00:11:16 Yes 284
32 P N W Challenge - ID 0100-AU18-PNWC Pair#14 BC H 4 14:36:19.40 1446.764 00:11:17 Yes 283
33 American Star Racing Pigeons - CA 5404-AU18-ARPU BB H 1 14:36:21.10 1446.663 00:11:19 Yes 282
34 G & J Lofts - CA 3007-AU18-AA Lady Gray BB H 1 14:36:21.60 1446.634 00:11:19 Yes 281
35 H & H Flying Circus - CA 0804-AU18-ML BC H 3 14:36:22.10 1446.604 00:11:20 Yes 280
36 Gomez Loft - CA 0161-AU18-CHP BB H 1 14:36:24.90 1446.438 00:11:23 Yes 279
37 Nanez Family Lofts - WI 8183-AU18-NANE BB H 1 14:36:25.40 1446.408 00:11:23 Yes 278
38 Sierra Ranch - CA 0847-AU18-SR Sweet Pattie BB H 1 14:36:25.70 1446.390 00:11:24 Yes 277
39 Perfection 2 - KS 4517-AU18-AA BB H 3 14:36:26.10 1446.367 00:11:24 Yes 276
40 Circle Loft 2 - FL 0014-AU18-CIRC BBWF H 1 14:36:28.70 1446.213 00:11:27 Yes 275
41 Genesis Syndicate Loft - AZ 0509-AU18-GEN BB H 1 14:36:33.60 1445.922 00:11:31 Yes 274
42 American Star Racing Pigeons - CA 5405-AU18-ARPU BB H 2 14:37:06.00 1444.004 00:12:04 Yes 273
43 Perfection 2 - KS 0174-AU18-SEBR BB H 4 14:37:09.20 1443.815 00:12:07 Yes 272
44 P N W Challenge - ID 0713-AU18-DA Pair#J BB H 5 14:37:09.60 1443.791 00:12:08 Yes 271
45 Flying W - CA 0605-AU18-AUB BCSP H 1 14:37:16.30 1443.395 00:12:14 Yes 270
- 5-DROP 14:37:15.00 1442.395
46 Mc Cormick Loft - CA 0236-AU18-HANG BB H 1 14:40:53.70 1430.667 00:15:52 Yes 268
47 California Breeders Syndicate - CA 1499-AU18-AA Gold Digger BBWF H 1 14:41:12.90 1429.554 00:16:11 Yes 266
48 Fantastic 4 Syndicate - CA 63992-AU18-ARPU BC H 1 14:41:38.70 1428.061 00:16:37 Yes 264
49 Genesis Syndicate Loft - AZ 0510-AU18-GEN BB H 2 14:46:50.60 1410.252 00:21:48 Yes 262
50 Do Drop In Loft - NC 8281-IF18-FOYS BBSP H 1 14:47:00.80 1409.677 00:21:59 Yes 260
51 Loizzi - Sikora - CA 2513-AU18-FVC BBWF H 2 14:47:01.20 1409.654 00:21:59 Yes 258
52 Lechuga Loft - TX 0538-AU18-AMA RC H 1 14:47:05.00 1409.440 00:22:03 Yes 256
53 House Of Paine - CA 1826-AU18-GSF MLY H 2 14:47:05.50 1409.412 00:22:03 Yes 254
54 Racing Pigeon Mall - WA 0803-AU18-RPM BB H 1 14:47:12.00 1409.046 00:22:10 Yes 252
55 Silicon Valley Syndicates - CA 1815-AU18-WSJ BB H 2 14:47:12.50 1409.018 00:22:10 Yes 250
56 John Hedderson - CA 0801-AU18-HEDD 6855x6853 BB H 1 14:47:25.50 1408.287 00:22:23 Yes 248
57 Dan And Greg Coury - AZ 0210-AU18-DUTC Brother's Pride 322x578 DC H 2 14:47:28.60 1408.112 00:22:27 Yes 246
58 B S Lofts - CA 0819-AU18-BSL ® 9 & 26 BC H 1 14:47:38.50 1407.556 00:22:36 Yes 244
59 Perfection 2 - KS 1716-AU18-TCH BB H 5 14:47:49.00 1406.967 00:22:47 Yes 242
60 Genesis Syndicate Loft - AZ 0368-AU18-GEN DC H 3 14:49:47.10 1400.369 00:24:45 Yes 240
61 Utaz Team - UT 0118-IF18-PSC DC H 1 14:49:51.10 1400.147 00:24:49 Yes 238
62 Racing Pigeon Mall - WA 0818-AU18-RPM BB H 2 14:50:03.30 1399.469 00:25:01 Yes 236
63 Jeff Earthman - NV 0846-AU18-EART PIED H 1 14:53:06.60 1389.365 00:28:04 Yes 234
64 Lopez/ Saenz - CA 0062-AU18-TCH BBWF H 2 14:53:10.10 1389.173 00:28:08 Yes 232
65 Skylinerpl.Com - UT 11426-AU18-JEDD "Butterfinger" BC H 1 14:54:23.60 1385.163 00:29:22 Yes 230
66 Evolution One Loft - UT 6007-AU18-OGN BB H 1 14:54:26.00 1385.033 00:29:24 Yes 228
67 Silicon Valley Syndicates - CA 1828-AU18-WSJ BC H 3 14:54:35.50 1384.516 00:29:33 Yes 226
68 G & J Lofts - CA 3008-AU18-AA Something About Her BB H 2 15:01:43.20 1361.656 00:36:41 Yes 224
69 Bieu Tran - CA 0007-AU18-TRAN BCWF H 1 15:01:43.60 1361.635 00:36:41 Yes 222
70 Kay Eastwood - CA 0144-AU18-HANG BB H 2 15:01:57.70 1360.894 00:36:56 Yes 220
71 Loizzi - Sikora - CA 2506-AU18-FVC BC H 3 15:02:05.70 1360.474 00:37:04 Yes 218
72 Marengo Creek Farms - AL 2967-AU18-MCF BB H 1 15:03:38.10 1355.643 00:38:36 Yes 216
73 Jim Lauritzen - CA 0954-AU18-EAV BC H 1 15:06:18.80 1347.321 00:41:17 Yes 214
74 Doucet Lofts - CA 46015-AU18-ARPU Petite Cherie BB H 1 15:06:19.80 1347.269 00:41:18 Yes 212
75 Flying W - CA 0600-AU18-AUB BC H 2 15:06:20.20 1347.249 00:41:18 Yes 210
76 Bolgar Loft - CA 3341-AU18-FSC Izmail BC H 1 15:06:24.80 1347.012 00:41:23 Yes 208
77 Dan And Greg Coury - AZ 0818-AU18-PEGA EVC122xEVC133 BB H 3 15:06:30.10 1346.740 00:41:28 Yes 206
78 A P C Loft - TX 18186-AU18-APC BB H 2 15:06:32.10 1346.637 00:41:30 Yes 204
79 Lopez/ Saenz - CA 0317-AU18-TCH BB H 3 15:06:33.40 1346.570 00:41:31 Yes 202
80 Scrub Family Loft - MN 0100-AU18-UNIT Mr Jordan BBWF C 1 15:07:24.00 1343.974 00:42:22 Yes 200
81 American Star Racing Pigeons - CA 5406-AU18-ARPU BB H 3 15:13:54.60 1324.264 00:48:52 Yes 198
82 Triangle F Loft - UT 0257-AU18-UVI 594 X 700 BCWF H 2 15:13:55.50 1324.219 00:48:53 Yes 196
83 K C Loft - CA 0688-AU18-FMT BBSP H 2 15:13:57.90 1324.100 00:48:56 Yes 194
84 Oscar Yanez - CA 4676-AU18-FOYS Osty-V BB H 1 15:14:03.00 1323.847 00:49:01 Yes 192
85 Oscar Yanez - CA 4661-AU18-FOYS Osty-l BB H 2 15:17:51.10 1312.609 00:52:49 Yes 190
86 Jack's Loft - CA 11839-AU18-FOYS Hungry Kaanibaal BC H 1 15:17:52.60 1312.536 00:52:50 Yes 188
87 H & H Flying Circus - CA 0802-AU18-ML BC H 4 15:17:56.30 1312.355 00:52:54 Yes 186
88 Jeff Earthman - NV 0848-AU18-EART BB H 2 15:21:20.70 1302.450 00:56:19 Yes 184
89 American Star Racing Pigeons - CA 5407-AU18-ARPU BB H 4 15:21:24.60 1302.262 00:56:22 Yes 182
90 Jactions Loft - CA 0803-AU18-AA BB H 2 15:21:29.30 1302.036 00:56:27 Yes 180
91 Cain & Page - CA 4213-AU18-FSC DC H 1 15:21:36.10 1301.709 00:56:34 Yes 178
92 Kay Eastwood - CA 0157-AU18-HANG MLY H 3 15:24:06.10 1294.543 00:59:04 Yes 176
93 Jeff Earthman - NV 0849-AU18-EART PIED H 3 15:32:54.10 1269.933 01:07:52 Yes 174
94 Loizzi - Sikora - CA 2509-AU18-FVC BCOP H 4 15:32:55.40 1269.874 01:07:53 Yes 172
95 Apr Loft - CA 2073-AU18-SFR Princes Anne DC H 1 15:32:55.90 1269.851 01:07:54 Yes 170

There are 199 bird records

Note: These Race Results are unofficial and subject to change until verified by the Race Committee and declared final.